createdAt,value
2019-01-21T00:01:33.778Z,22.57
2019-01-21T00:06:41.546Z,18.13
2019-01-21T00:11:48.475Z,23.67
2019-01-21T00:16:54.954Z,28.47
2019-01-21T00:22:01.214Z,31.97
2019-01-21T00:27:08.659Z,33.73
2019-01-21T00:32:14.695Z,39.37
2019-01-21T00:37:22.353Z,35.97
2019-01-21T00:42:29.925Z,36.27
2019-01-21T00:47:37.249Z,32.67
2019-01-21T00:52:44.406Z,30.50
2019-01-21T00:57:51.418Z,37.53
2019-01-21T01:02:58.561Z,36.57
2019-01-21T01:08:04.800Z,35.97
2019-01-21T01:13:12.333Z,32.37
2019-01-21T01:18:19.317Z,30.10
2019-01-21T01:23:27.068Z,33.33
2019-01-21T01:28:33.669Z,30.47
2019-01-21T01:33:41.499Z,34.07
2019-01-21T01:38:49.183Z,35.67
2019-01-21T01:43:55.891Z,32.23
2019-01-21T01:49:03.752Z,32.37
2019-01-21T01:54:11.432Z,37.10
2019-01-21T01:59:18.391Z,33.07
2019-01-21T02:04:24.544Z,37.80
2019-01-21T02:09:32.287Z,35.37
2019-01-21T02:14:39.125Z,35.63
2019-01-21T02:19:47.714Z,34.43
2019-01-21T02:24:58.199Z,29.97
2019-01-21T02:30:27.196Z,26.67
2019-01-21T02:35:58.011Z,31.93
2019-01-21T02:41:38.875Z,28.10
2019-01-21T02:46:55.814Z,33.37
2019-01-21T02:52:31.994Z,36.43
2019-01-21T02:58:27.146Z,35.10
2019-01-21T03:04:15.384Z,37.63
2019-01-21T03:09:45.772Z,36.87
2019-01-21T03:15:34.383Z,38.77
2019-01-21T03:21:34.971Z,36.17
2019-01-21T03:27:02.997Z,38.03
2019-01-21T03:32:36.702Z,36.00
2019-01-21T03:38:17.189Z,33.87
2019-01-21T03:43:54.437Z,25.93
2019-01-21T03:49:09.075Z,22.77
2019-01-21T03:54:49.246Z,19.77
2019-01-21T04:00:17.507Z,23.50
2019-01-21T04:05:54.005Z,19.67
2019-01-21T04:11:36.745Z,16.93
2019-01-21T04:17:34.356Z,16.07
2019-01-21T04:23:27.000Z,17.27
2019-01-21T04:28:55.202Z,17.03
2019-01-21T04:34:49.318Z,18.40
2019-01-21T04:40:23.641Z,20.07
2019-01-21T04:46:00.399Z,15.93
2019-01-21T04:51:33.978Z,17.27
2019-01-21T04:57:12.091Z,21.03
2019-01-21T05:02:53.831Z,17.63
2019-01-21T05:08:50.430Z,13.83
2019-01-21T05:14:31.018Z,17.53
2019-01-21T05:19:58.304Z,14.50
2019-01-21T05:25:43.090Z,14.93
2019-01-21T05:31:29.440Z,14.33
2019-01-21T05:37:05.040Z,14.37
2019-01-21T05:42:24.852Z,16.47
2019-01-21T05:48:17.904Z,16.30
2019-01-21T05:54:02.105Z,16.73
2019-01-21T06:00:14.822Z,16.50
2019-01-21T06:05:58.918Z,17.50
2019-01-21T06:11:22.332Z,17.53
2019-01-21T06:17:00.579Z,17.70
2019-01-21T06:22:37.402Z,20.97
2019-01-21T06:28:27.323Z,21.33
2019-01-21T06:34:24.180Z,17.07
2019-01-21T06:40:20.021Z,21.47
2019-01-21T06:46:21.539Z,17.87
2019-01-21T06:52:19.522Z,16.50
2019-01-21T06:58:07.491Z,16.30
2019-01-21T07:03:41.287Z,17.37
2019-01-21T07:09:14.028Z,19.57
2019-01-21T07:15:02.630Z,16.87
2019-01-21T07:20:35.534Z,19.13
2019-01-21T07:26:24.314Z,19.07
2019-01-21T07:31:44.060Z,19.47
2019-01-21T07:37:11.362Z,17.97
2019-01-21T07:43:10.787Z,20.93
2019-01-21T07:49:17.519Z,16.73
2019-01-21T07:55:06.207Z,16.23
2019-01-21T08:00:26.506Z,17.30
2019-01-21T08:06:17.322Z,15.23
2019-01-21T08:11:55.223Z,15.70
2019-01-21T08:17:38.486Z,15.90
2019-01-21T08:23:21.835Z,16.63
2019-01-21T08:29:14.623Z,14.17
2019-01-21T08:35:10.784Z,14.17
2019-01-21T08:40:30.772Z,12.50
2019-01-21T08:46:09.787Z,12.80
2019-01-21T08:52:22.021Z,13.13
2019-01-21T08:58:31.435Z,14.40
2019-01-21T09:04:14.627Z,18.20
2019-01-21T09:10:11.898Z,13.87
2019-01-21T09:16:17.654Z,15.87
2019-01-21T09:21:54.723Z,14.40
2019-01-21T09:27:47.509Z,19.70
2019-01-21T09:33:46.629Z,15.17
2019-01-21T09:39:53.263Z,13.77
2019-01-21T09:45:43.295Z,15.40
2019-01-21T09:50:51.435Z,11.00
2019-01-21T09:56:00.629Z,13.00
2019-01-21T10:01:10.324Z,23.50
2019-01-21T10:06:21.849Z,12.23
2019-01-21T10:11:57.995Z,13.17
2019-01-21T10:17:47.126Z,17.60
2019-01-21T10:23:20.172Z,15.40
2019-01-21T10:28:46.009Z,14.37
2019-01-21T10:34:42.403Z,12.33
2019-01-21T10:40:53.999Z,12.00
2019-01-21T10:46:39.350Z,11.83
2019-01-21T10:52:12.137Z,15.47
2019-01-21T10:57:59.980Z,12.50
2019-01-21T11:03:38.086Z,16.13
2019-01-21T11:09:13.588Z,13.70
2019-01-21T11:14:33.814Z,12.67
2019-01-21T11:20:39.951Z,12.00
2019-01-21T11:26:25.978Z,12.70
2019-01-21T11:31:56.210Z,13.87
2019-01-21T11:38:04.151Z,12.17
2019-01-21T11:43:51.266Z,15.33
2019-01-21T11:49:23.519Z,12.13
2019-01-21T11:54:59.280Z,12.63
2019-01-21T12:00:19.172Z,15.67
2019-01-21T12:05:35.596Z,12.70
2019-01-21T12:11:14.207Z,15.63
2019-01-21T12:16:58.239Z,14.60
2019-01-21T12:22:33.485Z,16.63
2019-01-21T12:28:11.174Z,18.17
2019-01-21T12:33:55.183Z,14.97
2019-01-21T12:39:42.145Z,15.07
2019-01-21T12:45:39.371Z,13.37
2019-01-21T12:51:52.384Z,14.77
2019-01-21T12:57:57.524Z,16.07
2019-01-21T13:03:51.812Z,16.67
2019-01-21T13:09:26.726Z,14.27
2019-01-21T13:15:18.295Z,13.70
2019-01-21T13:20:53.147Z,11.77
2019-01-21T13:26:35.495Z,13.20
2019-01-21T13:32:18.103Z,15.03
2019-01-21T13:38:05.690Z,14.80
2019-01-21T13:43:50.768Z,19.13
2019-01-21T13:49:21.912Z,14.40
2019-01-21T13:55:06.285Z,12.27
2019-01-21T14:00:37.599Z,11.53
2019-01-21T14:06:26.247Z,11.07
2019-01-21T14:12:06.668Z,13.20
2019-01-21T14:17:46.789Z,14.37
2019-01-21T14:23:25.465Z,14.27
2019-01-21T14:29:06.158Z,14.93
2019-01-21T14:35:07.074Z,12.37
2019-01-21T14:40:46.270Z,9.77
2019-01-21T14:46:16.895Z,11.03
2019-01-21T14:51:47.133Z,13.50
2019-01-21T14:57:16.442Z,14.60
2019-01-21T15:02:58.384Z,25.23
2019-01-21T15:08:17.114Z,9.03
2019-01-21T15:14:05.572Z,16.77
2019-01-21T15:19:34.034Z,11.43
2019-01-21T15:25:41.043Z,11.87
2019-01-21T15:31:09.421Z,13.83
2019-01-21T15:36:59.053Z,11.87
2019-01-21T15:42:52.676Z,14.43
2019-01-21T15:48:28.082Z,15.37
2019-01-21T15:53:57.368Z,13.47
2019-01-21T15:59:39.977Z,11.87
2019-01-21T16:05:17.666Z,12.73
2019-01-21T16:10:49.002Z,19.20
2019-01-21T16:16:45.433Z,20.17
2019-01-21T16:22:21.804Z,22.53
2019-01-21T16:28:06.518Z,23.00
2019-01-21T16:33:31.902Z,17.00
2019-01-21T16:39:21.750Z,20.80
2019-01-21T16:44:27.981Z,18.47
2019-01-21T16:49:45.695Z,17.60
2019-01-21T16:54:55.130Z,30.63
2019-01-21T17:00:05.025Z,21.03
2019-01-21T17:05:13.162Z,17.00
2019-01-21T17:10:22.870Z,16.13
2019-01-21T17:15:31.058Z,18.57
2019-01-21T17:20:38.307Z,25.73
2019-01-21T17:25:44.720Z,27.00
2019-01-21T17:30:54.357Z,23.37
2019-01-21T17:36:03.369Z,23.90
2019-01-21T17:41:13.507Z,29.60
2019-01-21T17:46:21.254Z,27.63
2019-01-21T17:51:33.762Z,24.57
2019-01-21T17:56:36.834Z,20.63
2019-01-21T18:01:43.971Z,24.73
2019-01-21T18:06:51.756Z,28.67
2019-01-21T18:11:58.000Z,29.37
2019-01-21T18:17:05.444Z,29.43
2019-01-21T18:22:12.056Z,29.37
2019-01-21T18:27:18.228Z,32.60
2019-01-21T18:32:25.350Z,28.97
2019-01-21T18:37:33.252Z,30.27
2019-01-21T18:42:41.429Z,27.90
2019-01-21T18:47:49.292Z,31.33
2019-01-21T18:52:59.836Z,32.90
2019-01-21T18:58:06.637Z,25.07
2019-01-21T19:03:15.188Z,27.67
2019-01-21T19:08:21.640Z,27.03
2019-01-21T19:13:28.259Z,29.20
2019-01-21T19:18:34.735Z,24.13
2019-01-21T19:23:42.559Z,29.97
2019-01-21T19:28:49.734Z,27.30
2019-01-21T19:33:57.453Z,25.60
2019-01-21T19:39:08.415Z,30.77
2019-01-21T19:44:14.646Z,27.40
2019-01-21T19:49:21.610Z,32.47
2019-01-21T19:54:29.323Z,29.13
2019-01-21T19:59:44.973Z,32.27
2019-01-21T20:04:51.938Z,42.13
2019-01-21T20:10:00.014Z,32.63
2019-01-21T20:15:09.026Z,33.60
2019-01-21T20:20:22.610Z,34.10
2019-01-21T20:25:30.099Z,33.20
2019-01-21T20:30:37.456Z,31.00
2019-01-21T20:35:45.698Z,29.40
2019-01-21T20:40:53.385Z,38.77
2019-01-21T20:46:01.643Z,33.20
2019-01-21T20:51:12.135Z,36.00
2019-01-21T20:56:19.608Z,28.60
2019-01-21T21:01:26.204Z,28.77
2019-01-21T21:06:35.971Z,30.43
2019-01-21T21:11:45.696Z,29.93
2019-01-21T21:16:54.414Z,33.03
2019-01-21T21:22:02.948Z,37.17
2019-01-21T21:27:11.476Z,29.57
2019-01-21T21:32:21.135Z,23.93
2019-01-21T21:37:28.811Z,23.33
2019-01-21T21:42:37.200Z,25.03
2019-01-21T21:47:45.344Z,30.20
2019-01-21T21:52:51.888Z,35.30
2019-01-21T21:57:58.226Z,34.57
2019-01-21T22:03:04.988Z,27.50
2019-01-21T22:08:13.170Z,26.10
2019-01-21T22:13:19.315Z,30.70
2019-01-21T22:18:27.499Z,25.27
2019-01-21T22:23:36.221Z,25.07
2019-01-21T22:28:44.333Z,24.00
2019-01-21T22:33:52.086Z,24.30
2019-01-21T22:38:59.688Z,29.07
2019-01-21T22:44:06.934Z,25.10
2019-01-21T22:49:13.635Z,21.50
2019-01-21T22:54:20.508Z,17.73
2019-01-21T22:59:26.902Z,18.87
2019-01-21T23:04:34.161Z,17.43
2019-01-21T23:09:42.568Z,17.60
2019-01-21T23:14:49.967Z,19.63
2019-01-21T23:19:57.138Z,16.83
2019-01-21T23:25:05.170Z,19.57
2019-01-21T23:30:14.443Z,18.17
2019-01-21T23:35:22.292Z,18.57
2019-01-21T23:40:29.916Z,17.67
2019-01-21T23:45:37.414Z,19.83
2019-01-21T23:50:46.207Z,19.27
2019-01-21T23:55:53.775Z,23.67
